createdAt,value
2018-08-22T00:02:00.990Z,43.54
2018-08-22T00:04:29.486Z,43.84
2018-08-22T00:06:57.976Z,43.86
2018-08-22T00:09:26.185Z,43.60
2018-08-22T00:11:54.484Z,44.39
2018-08-22T00:14:23.522Z,44.03
2018-08-22T00:16:51.617Z,44.08
2018-08-22T00:19:19.748Z,44.25
2018-08-22T00:21:48.263Z,44.25
2018-08-22T00:24:17.235Z,44.72
2018-08-22T00:26:45.393Z,45.02
2018-08-22T00:29:14.496Z,45.78
2018-08-22T00:31:43.781Z,45.43
2018-08-22T00:34:11.983Z,45.30
2018-08-22T00:36:40.076Z,45.69
2018-08-22T00:39:08.774Z,46.40
2018-08-22T00:41:36.872Z,47.54
2018-08-22T00:44:05.016Z,47.90
2018-08-22T00:46:33.095Z,47.69
2018-08-22T00:49:01.214Z,47.94
2018-08-22T00:51:29.546Z,48.05
2018-08-22T00:53:57.667Z,47.50
2018-08-22T00:56:25.790Z,47.73
2018-08-22T00:58:53.910Z,48.44
2018-08-22T01:01:22.002Z,49.09
2018-08-22T01:03:50.226Z,48.86
2018-08-22T01:06:18.513Z,48.88
2018-08-22T01:08:47.385Z,48.24
2018-08-22T01:11:15.471Z,49.33
2018-08-22T01:13:44.178Z,49.24
2018-08-22T01:16:12.304Z,48.89
2018-08-22T01:18:40.408Z,49.07
2018-08-22T01:21:08.794Z,49.65
2018-08-22T01:23:36.960Z,49.69
2018-08-22T01:26:05.757Z,49.37
2018-08-22T01:28:34.273Z,49.48
2018-08-22T01:31:02.451Z,49.73
2018-08-22T01:33:32.094Z,49.17
2018-08-22T01:36:01.335Z,49.81
2018-08-22T01:38:31.492Z,50.20
2018-08-22T01:40:59.564Z,50.09
2018-08-22T01:43:27.771Z,49.42
2018-08-22T01:45:55.986Z,49.37
2018-08-22T01:48:24.151Z,51.04
2018-08-22T01:50:52.281Z,51.26
2018-08-22T01:53:20.394Z,51.48
2018-08-22T01:55:48.646Z,51.79
2018-08-22T01:58:17.012Z,51.78
2018-08-22T02:00:45.118Z,51.73
2018-08-22T02:03:13.245Z,50.94
2018-08-22T02:05:41.460Z,50.99
2018-08-22T02:08:09.583Z,51.17
2018-08-22T02:10:37.778Z,51.78
2018-08-22T02:13:06.151Z,51.34
2018-08-22T02:15:34.716Z,52.19
2018-08-22T02:18:02.818Z,51.41
2018-08-22T02:20:31.472Z,51.36
2018-08-22T02:22:59.722Z,51.98
2018-08-22T02:25:27.878Z,52.49
2018-08-22T02:27:56.086Z,51.98
2018-08-22T02:30:24.192Z,53.15
2018-08-22T02:32:52.303Z,53.80
2018-08-22T02:35:20.504Z,53.91
2018-08-22T02:37:48.590Z,53.40
2018-08-22T02:40:17.785Z,53.42
2018-08-22T02:42:45.958Z,53.42
2018-08-22T02:45:15.092Z,53.53
2018-08-22T02:47:43.253Z,54.02
2018-08-22T02:50:11.378Z,53.32
2018-08-22T02:52:39.785Z,53.52
2018-08-22T02:55:08.121Z,54.83
2018-08-22T02:57:36.316Z,53.81
2018-08-22T03:00:04.448Z,53.45
2018-08-22T03:02:32.528Z,54.58
2018-08-22T03:05:01.558Z,53.44
2018-08-22T03:07:29.656Z,53.71
2018-08-22T03:09:57.763Z,53.70
2018-08-22T03:12:25.949Z,53.62
2018-08-22T03:14:54.304Z,53.08
2018-08-22T03:17:22.419Z,54.68
2018-08-22T03:19:50.545Z,54.25
2018-08-22T03:22:19.348Z,54.01
2018-08-22T03:24:47.531Z,54.28
2018-08-22T03:27:15.966Z,54.04
2018-08-22T03:29:44.711Z,54.65
2018-08-22T03:32:13.940Z,55.37
2018-08-22T03:34:42.213Z,55.67
2018-08-22T03:37:10.798Z,55.94
2018-08-22T03:39:39.039Z,55.73
2018-08-22T03:42:07.555Z,56.48
2018-08-22T03:44:35.801Z,55.74
2018-08-22T03:47:03.901Z,56.15
2018-08-22T03:49:32.021Z,56.21
2018-08-22T03:52:01.143Z,56.23
2018-08-22T03:54:29.312Z,55.76
2018-08-22T03:56:57.572Z,56.03
2018-08-22T03:59:25.785Z,56.10
2018-08-22T04:01:53.886Z,57.12
2018-08-22T04:04:22.008Z,56.55
2018-08-22T04:06:50.104Z,57.23
2018-08-22T04:09:18.256Z,56.95
2018-08-22T04:11:46.863Z,56.02
2018-08-22T04:14:15.358Z,56.44
2018-08-22T04:16:43.692Z,57.12
2018-08-22T04:19:13.738Z,56.66
2018-08-22T04:21:42.170Z,57.44
2018-08-22T04:24:10.727Z,57.39
2018-08-22T04:26:38.840Z,57.44
2018-08-22T04:29:07.042Z,57.80
2018-08-22T04:31:35.114Z,57.59
2018-08-22T04:34:03.426Z,57.37
2018-08-22T04:36:32.492Z,57.96
2018-08-22T04:39:00.622Z,57.19
2018-08-22T04:41:28.725Z,57.12
2018-08-22T04:43:56.927Z,56.49
2018-08-22T04:46:25.098Z,57.14
2018-08-22T04:48:53.255Z,56.78
2018-08-22T04:51:21.506Z,56.85
2018-08-22T04:53:49.778Z,56.85
2018-08-22T04:56:17.864Z,57.24
2018-08-22T04:58:45.994Z,58.27
2018-08-22T05:01:14.227Z,58.18
2018-08-22T05:03:42.782Z,57.42
2018-08-22T05:06:10.952Z,57.13
2018-08-22T05:08:39.073Z,57.34
2018-08-22T05:11:07.168Z,58.00
2018-08-22T05:13:35.302Z,57.97
2018-08-22T05:16:03.471Z,58.08
2018-08-22T05:18:32.236Z,57.89
2018-08-22T05:21:00.519Z,57.90
2018-08-22T05:23:28.664Z,57.36
2018-08-22T05:25:56.878Z,56.83
2018-08-22T05:28:24.993Z,57.67
2018-08-22T05:30:53.259Z,57.87
2018-08-22T05:33:21.567Z,56.88
2018-08-22T05:35:49.808Z,56.93
2018-08-22T05:38:18.073Z,56.78
2018-08-22T05:40:46.244Z,58.12
2018-08-22T05:43:15.243Z,56.90
2018-08-22T05:45:43.443Z,57.23
2018-08-22T05:48:11.528Z,56.96
2018-08-22T05:50:39.660Z,57.24
2018-08-22T05:53:07.815Z,57.16
2018-08-22T05:55:36.122Z,57.32
2018-08-22T05:58:04.239Z,57.52
2018-08-22T06:00:32.630Z,57.19
2018-08-22T06:03:00.784Z,57.30
2018-08-22T06:05:28.986Z,57.02
2018-08-22T06:07:57.156Z,57.38
2018-08-22T06:10:25.335Z,56.51
2018-08-22T06:12:53.516Z,57.16
2018-08-22T06:15:21.915Z,56.65
2018-08-22T06:17:50.888Z,56.65
2018-08-22T06:20:19.007Z,56.03
2018-08-22T06:22:47.229Z,56.07
2018-08-22T06:25:26.551Z,56.59
2018-08-22T06:28:05.020Z,56.00
2018-08-22T06:30:34.004Z,56.27
2018-08-22T06:33:02.572Z,55.75
2018-08-22T06:35:37.781Z,55.96
2018-08-22T06:38:11.435Z,55.99
2018-08-22T06:40:39.606Z,55.44
2018-08-22T06:43:07.736Z,55.45
2018-08-22T06:45:35.892Z,55.07
2018-08-22T06:48:05.014Z,55.23
2018-08-22T06:50:33.708Z,55.03
2018-08-22T06:53:02.774Z,54.31
2018-08-22T06:55:30.841Z,54.81
2018-08-22T06:57:58.959Z,54.52
2018-08-22T07:00:27.155Z,54.40
2018-08-22T07:02:56.136Z,54.44
2018-08-22T07:05:24.564Z,53.78
2018-08-22T07:07:53.441Z,53.87
2018-08-22T07:10:22.491Z,53.61
2018-08-22T07:12:50.768Z,53.39
2018-08-22T07:15:18.888Z,53.58
2018-08-22T07:17:46.982Z,53.17
2018-08-22T07:20:15.357Z,53.16
2018-08-22T07:22:43.438Z,53.43
2018-08-22T07:25:11.540Z,52.77
2018-08-22T07:27:39.707Z,52.51
2018-08-22T07:30:08.744Z,52.87
2018-08-22T07:32:37.059Z,52.50
2018-08-22T07:35:05.363Z,52.67
2018-08-22T07:37:34.244Z,52.56
2018-08-22T07:40:03.945Z,51.87
2018-08-22T07:42:35.242Z,51.75
2018-08-22T07:45:05.010Z,51.84
2018-08-22T07:47:33.116Z,52.04
2018-08-22T07:50:01.367Z,51.33
2018-08-22T07:52:30.567Z,51.99
2018-08-22T07:54:59.033Z,51.60
2018-08-22T07:57:27.501Z,51.46
2018-08-22T07:59:57.784Z,51.41
2018-08-22T08:02:26.204Z,50.70
2018-08-22T08:04:54.391Z,50.87
2018-08-22T08:07:23.000Z,51.13
2018-08-22T08:09:51.496Z,50.69
2018-08-22T08:12:23.181Z,50.58
2018-08-22T08:14:55.435Z,49.86
2018-08-22T08:17:23.532Z,49.63
2018-08-22T08:19:51.806Z,49.57
2018-08-22T08:22:19.984Z,50.27
2018-08-22T08:24:48.174Z,50.08
2018-08-22T08:27:16.583Z,49.05
2018-08-22T08:29:45.083Z,49.24
2018-08-22T08:32:14.614Z,49.13
2018-08-22T08:34:42.822Z,49.04
2018-08-22T08:37:11.572Z,49.93
2018-08-22T08:39:41.340Z,49.22
2018-08-22T08:42:09.699Z,48.05
2018-08-22T08:44:39.841Z,47.79
2018-08-22T08:47:08.117Z,48.19
2018-08-22T08:49:37.044Z,48.06
2018-08-22T08:52:07.123Z,47.13
2018-08-22T08:54:35.524Z,48.01
2018-08-22T08:57:03.865Z,47.68
2018-08-22T08:59:31.986Z,47.65
2018-08-22T09:02:00.330Z,47.02
2018-08-22T09:04:28.477Z,47.01
2018-08-22T09:06:56.690Z,46.31
2018-08-22T09:09:24.890Z,47.13
2018-08-22T09:11:59.341Z,46.09
2018-08-22T09:14:27.857Z,46.50
2018-08-22T09:16:56.663Z,46.68
2018-08-22T09:19:24.946Z,45.82
2018-08-22T09:21:54.822Z,45.97
2018-08-22T09:24:23.231Z,44.91
2018-08-22T09:26:51.297Z,44.77
2018-08-22T09:29:20.432Z,44.16
2018-08-22T09:31:48.533Z,43.43
2018-08-22T09:34:16.682Z,42.65
2018-08-22T09:36:44.852Z,43.14
2018-08-22T09:39:14.665Z,43.23
2018-08-22T09:41:43.401Z,42.81
2018-08-22T09:44:12.500Z,43.11
2018-08-22T09:46:41.612Z,42.82
2018-08-22T09:49:10.203Z,42.75
2018-08-22T09:51:39.833Z,42.36
2018-08-22T09:54:07.997Z,42.34
2018-08-22T09:56:36.268Z,42.57
2018-08-22T09:59:04.386Z,41.77
2018-08-22T10:01:39.439Z,41.54
2018-08-22T10:04:07.603Z,41.67
2018-08-22T10:06:42.163Z,41.15
2018-08-22T10:09:18.416Z,41.04
2018-08-22T10:11:46.681Z,40.18
2018-08-22T10:14:15.376Z,40.54
2018-08-22T10:16:43.574Z,40.27
2018-08-22T10:19:13.031Z,40.52
2018-08-22T10:21:41.911Z,39.85
2018-08-22T10:24:10.248Z,39.86
2018-08-22T10:26:39.101Z,39.53
2018-08-22T10:29:07.223Z,38.76
2018-08-22T10:31:35.554Z,38.46
2018-08-22T10:34:04.240Z,37.95
2018-08-22T10:36:34.708Z,38.02
2018-08-22T10:39:06.453Z,37.46
2018-08-22T10:41:34.687Z,37.78
2018-08-22T10:44:04.952Z,36.00
2018-08-22T10:46:33.962Z,36.37
2018-08-22T10:49:02.268Z,36.43
2018-08-22T10:51:30.683Z,36.23
2018-08-22T10:53:58.950Z,36.73
2018-08-22T10:56:28.075Z,35.20
2018-08-22T10:58:59.211Z,35.42
2018-08-22T11:01:28.759Z,34.36
2018-08-22T11:03:57.826Z,34.36
2018-08-22T11:06:27.214Z,34.66
2018-08-22T11:08:55.365Z,34.80
2018-08-22T11:11:23.954Z,35.03
2018-08-22T11:13:52.717Z,34.16
2018-08-22T11:16:21.117Z,33.51
2018-08-22T11:18:49.301Z,33.57
2018-08-22T11:21:28.640Z,33.67
2018-08-22T11:24:08.109Z,32.53
2018-08-22T11:26:47.468Z,32.39
2018-08-22T11:29:27.032Z,31.24
2018-08-22T11:32:06.711Z,31.19
2018-08-22T11:34:45.593Z,30.17
2018-08-22T11:37:14.958Z,29.02
2018-08-22T11:39:44.102Z,28.70
2018-08-22T11:42:12.971Z,29.20
2018-08-22T11:44:41.507Z,27.70
2018-08-22T11:47:09.915Z,28.40
2018-08-22T11:49:40.340Z,27.34
2018-08-22T11:52:08.713Z,27.17
2018-08-22T11:54:36.978Z,27.39
2018-08-22T11:57:05.336Z,26.66
2018-08-22T11:59:38.568Z,25.66
2018-08-22T12:02:06.727Z,25.18
2018-08-22T12:04:34.936Z,24.48
2018-08-22T12:07:04.978Z,24.33
2018-08-22T12:09:34.074Z,23.28
2018-08-22T12:12:04.166Z,21.92
2018-08-22T12:14:34.259Z,22.28
2018-08-22T12:17:02.980Z,21.48
2018-08-22T12:19:31.144Z,20.40
2018-08-22T12:21:59.427Z,20.30
2018-08-22T12:24:27.569Z,19.58
2018-08-22T12:26:55.707Z,19.67
2018-08-22T12:29:23.787Z,19.15
2018-08-22T12:31:58.995Z,18.20
2018-08-22T12:34:36.725Z,18.80
2018-08-22T12:37:05.539Z,17.98
2018-08-22T12:39:34.275Z,17.16
2018-08-22T12:42:02.641Z,15.66
2018-08-22T12:44:30.762Z,16.56
2018-08-22T12:46:59.134Z,15.52
2018-08-22T12:49:27.216Z,15.12
2018-08-22T12:51:55.833Z,14.71
2018-08-22T12:54:24.342Z,13.31
2018-08-22T12:56:52.539Z,13.88
2018-08-22T12:59:20.834Z,13.65
2018-08-22T13:01:48.973Z,13.97
2018-08-22T13:04:18.248Z,13.30
2018-08-22T13:06:48.121Z,13.37
2018-08-22T13:09:16.259Z,12.08
2018-08-22T13:11:44.515Z,12.23
2018-08-22T13:14:12.791Z,11.89
2018-08-22T13:16:43.604Z,11.48
2018-08-22T13:19:11.750Z,11.51
2018-08-22T13:21:41.256Z,12.50
2018-08-22T13:24:09.418Z,10.85
2018-08-22T13:26:37.492Z,11.01
2018-08-22T13:29:06.652Z,10.58
2018-08-22T13:34:18.990Z,9.24
2018-08-22T13:36:48.382Z,11.03
2018-08-22T13:39:16.647Z,10.01
2018-08-22T13:41:46.000Z,8.57
2018-08-22T13:44:14.355Z,9.37
2018-08-22T13:46:42.500Z,9.59
2018-08-22T13:49:10.694Z,9.69
2018-08-22T13:51:38.939Z,7.90
2018-08-22T13:54:07.091Z,9.25
2018-08-22T13:56:36.119Z,8.96
2018-08-22T13:59:04.520Z,8.27
2018-08-22T14:01:33.759Z,8.32
2018-08-22T14:04:01.837Z,8.64
2018-08-22T14:06:30.161Z,8.50
2018-08-22T14:09:00.220Z,7.72
2018-08-22T14:11:29.883Z,8.68
2018-08-22T14:13:58.270Z,8.74
2018-08-22T14:16:26.672Z,9.16
2018-08-22T14:18:55.372Z,7.70
2018-08-22T14:21:23.463Z,8.56
2018-08-22T14:23:52.479Z,8.74
2018-08-22T14:26:20.780Z,8.72
2018-08-22T14:28:49.720Z,8.30
2018-08-22T14:31:19.072Z,8.20
2018-08-22T14:33:47.382Z,8.41
2018-08-22T14:36:18.542Z,8.84
2018-08-22T14:38:46.897Z,8.23
2018-08-22T14:41:15.576Z,9.33
2018-08-22T14:43:43.879Z,7.92
2018-08-22T14:46:14.087Z,8.56
2018-08-22T14:48:44.015Z,8.85
2018-08-22T14:51:12.604Z,8.38
2018-08-22T14:53:40.951Z,7.70
2018-08-22T14:56:10.249Z,8.29
2018-08-22T14:58:38.343Z,8.36
2018-08-22T15:01:06.495Z,8.09
2018-08-22T15:03:35.165Z,8.21
2018-08-22T15:06:05.115Z,8.76
2018-08-22T15:08:33.234Z,7.93
2018-08-22T15:11:01.489Z,8.10
2018-08-22T15:13:30.004Z,8.16
2018-08-22T15:15:59.489Z,8.14
2018-08-22T15:18:28.760Z,8.02
2018-08-22T15:20:57.023Z,8.23
2018-08-22T15:23:25.140Z,7.81
2018-08-22T15:25:53.393Z,8.40
2018-08-22T15:28:21.525Z,7.88
2018-08-22T15:30:49.628Z,7.98
2018-08-22T15:33:17.757Z,7.96
2018-08-22T15:35:47.159Z,8.58
2018-08-22T15:38:15.548Z,8.31
2018-08-22T15:40:44.881Z,8.54
2018-08-22T15:43:13.067Z,8.06
2018-08-22T15:45:41.894Z,8.41
2018-08-22T15:48:11.284Z,8.60
2018-08-22T15:50:39.679Z,8.76
2018-08-22T15:53:13.355Z,8.59
2018-08-22T15:55:42.664Z,8.43
2018-08-22T15:58:10.831Z,7.89
2018-08-22T16:00:48.099Z,8.16
2018-08-22T16:03:16.407Z,8.77
2018-08-22T16:05:58.984Z,8.97
2018-08-22T16:08:34.634Z,9.28
2018-08-22T16:11:06.762Z,8.67
2018-08-22T16:13:36.252Z,9.11
2018-08-22T16:16:05.211Z,8.94
2018-08-22T16:18:34.596Z,8.81
2018-08-22T16:21:03.556Z,9.42
2018-08-22T16:23:33.484Z,9.36
2018-08-22T16:26:02.585Z,9.90
2018-08-22T16:28:42.106Z,10.28
2018-08-22T16:31:10.228Z,10.09
2018-08-22T16:33:38.595Z,10.73
2018-08-22T16:36:08.180Z,10.87
2018-08-22T16:38:36.631Z,12.29
2018-08-22T16:41:47.638Z,15.53
2018-08-22T16:44:16.320Z,16.86
2018-08-22T16:46:45.930Z,16.75
2018-08-22T16:49:14.328Z,16.83
2018-08-22T16:51:43.197Z,17.86
2018-08-22T16:54:11.375Z,17.09
2018-08-22T16:56:39.855Z,17.59
2018-08-22T16:59:11.856Z,18.06
2018-08-22T17:01:42.364Z,18.79
2018-08-22T17:04:10.427Z,18.93
2018-08-22T17:06:38.599Z,18.92
2018-08-22T17:09:08.315Z,19.10
2018-08-22T17:11:36.925Z,19.46
2018-08-22T17:19:05.090Z,20.41
2018-08-22T17:21:33.262Z,19.53
2018-08-22T17:24:02.517Z,20.29
2018-08-22T17:26:31.734Z,20.91
2018-08-22T17:29:00.762Z,20.30
2018-08-22T17:31:30.064Z,21.16
2018-08-22T17:34:02.075Z,20.82
2018-08-22T17:36:31.077Z,20.90
2018-08-22T17:39:00.487Z,20.59
2018-08-22T17:41:29.817Z,20.95
2018-08-22T17:44:11.722Z,21.40
2018-08-22T17:46:43.082Z,21.49
2018-08-22T17:49:11.279Z,21.72
2018-08-22T17:51:55.550Z,21.97
2018-08-22T17:54:25.564Z,22.33
2018-08-22T17:57:05.746Z,22.39
2018-08-22T17:59:34.955Z,21.97
2018-08-22T18:02:03.869Z,22.00
2018-08-22T18:04:43.491Z,23.06
2018-08-22T18:07:11.728Z,22.97
2018-08-22T18:09:40.845Z,23.11
2018-08-22T18:12:10.983Z,22.90
2018-08-22T18:14:40.998Z,23.15
2018-08-22T18:17:11.422Z,23.73
2018-08-22T18:19:40.938Z,23.65
2018-08-22T18:22:10.704Z,23.70
2018-08-22T18:24:45.857Z,24.05
2018-08-22T18:27:15.897Z,23.86
2018-08-22T18:29:45.679Z,24.63
2018-08-22T18:32:14.564Z,24.92
2018-08-22T18:34:57.876Z,24.76
2018-08-22T18:37:28.749Z,25.25
2018-08-22T18:40:09.224Z,24.94
2018-08-22T18:42:37.620Z,25.24
2018-08-22T18:45:06.189Z,25.72
2018-08-22T18:47:35.267Z,25.48
2018-08-22T18:50:03.471Z,25.87
2018-08-22T18:52:31.932Z,25.73
2018-08-22T18:55:00.708Z,26.27
2018-08-22T18:57:29.091Z,26.06
2018-08-22T18:59:57.410Z,26.36
2018-08-22T19:02:25.515Z,26.77
2018-08-22T19:04:56.762Z,27.38
2018-08-22T19:07:25.336Z,27.09
2018-08-22T19:09:55.151Z,27.24
2018-08-22T19:12:23.223Z,28.00
2018-08-22T19:14:51.812Z,27.79
2018-08-22T19:17:20.220Z,28.60
2018-08-22T19:19:48.894Z,28.60
2018-08-22T19:22:18.148Z,29.02
2018-08-22T19:25:02.253Z,28.64
2018-08-22T19:27:30.880Z,28.69
2018-08-22T19:30:00.175Z,28.41
2018-08-22T19:32:28.490Z,29.27
2018-08-22T19:34:57.099Z,29.42
2018-08-22T19:37:26.499Z,29.96
2018-08-22T19:40:08.725Z,29.92
2018-08-22T19:42:38.615Z,30.05
2018-08-22T19:45:08.291Z,30.54
2018-08-22T19:47:39.200Z,31.11
2018-08-22T19:50:08.156Z,30.12
2018-08-22T19:52:36.570Z,30.79
2018-08-22T19:55:06.623Z,31.37
2018-08-22T19:57:39.900Z,31.10
2018-08-22T20:00:10.832Z,31.96
2018-08-22T20:02:39.887Z,32.06
2018-08-22T20:05:09.188Z,31.68
2018-08-22T20:07:37.757Z,31.37
2018-08-22T20:10:09.617Z,31.67
2018-08-22T20:12:50.091Z,32.53
2018-08-22T20:15:18.374Z,32.80
2018-08-22T20:17:50.023Z,32.93
2018-08-22T20:20:19.452Z,32.73
2018-08-22T20:22:52.258Z,32.11
2018-08-22T20:25:20.360Z,32.71
2018-08-22T20:27:48.529Z,33.67
2018-08-22T20:30:19.951Z,33.07
2018-08-22T20:33:01.526Z,32.26
2018-08-22T20:35:35.715Z,33.16
2018-08-22T20:38:07.099Z,33.02
2018-08-22T20:40:38.043Z,33.52
2018-08-22T20:48:09.052Z,33.48
2018-08-22T20:50:38.393Z,33.69
2018-08-22T20:53:08.521Z,34.63
2018-08-22T20:55:39.158Z,34.57
2018-08-22T20:58:08.153Z,34.09
2018-08-22T21:00:37.888Z,33.57
2018-08-22T21:03:06.536Z,36.86
2018-08-22T21:05:34.999Z,35.77
2018-08-22T21:08:03.258Z,35.07
2018-08-22T21:10:31.374Z,35.06
2018-08-22T21:12:59.546Z,36.17
2018-08-22T21:15:27.821Z,35.89
2018-08-22T21:17:56.023Z,34.33
2018-08-22T21:20:25.907Z,33.72
2018-08-22T21:22:56.674Z,33.57
2018-08-22T21:25:25.914Z,34.74
2018-08-22T21:27:54.457Z,33.90
2018-08-22T21:30:24.102Z,34.80
2018-08-22T21:32:52.195Z,34.40
2018-08-22T21:35:26.068Z,34.68
2018-08-22T21:37:57.915Z,34.82
2018-08-22T21:40:26.162Z,34.56
2018-08-22T21:42:55.712Z,34.67
2018-08-22T21:45:23.956Z,34.70
2018-08-22T21:48:09.081Z,36.62
2018-08-22T21:50:37.288Z,35.96
2018-08-22T21:53:06.613Z,36.01
2018-08-22T21:55:50.574Z,35.06
2018-08-22T21:58:19.215Z,35.57
2018-08-22T22:00:47.400Z,35.94
2018-08-22T22:03:19.727Z,36.07
2018-08-22T22:05:56.057Z,36.58
2018-08-22T22:08:24.378Z,35.55
2018-08-22T22:10:59.449Z,36.31
2018-08-22T22:13:27.920Z,35.58
2018-08-22T22:15:58.665Z,35.75
2018-08-22T22:18:30.646Z,36.60
2018-08-22T22:21:10.371Z,36.39
2018-08-22T22:23:43.793Z,36.04
2018-08-22T22:26:12.403Z,37.05
2018-08-22T22:28:40.934Z,37.20
2018-08-22T22:31:11.566Z,37.35
2018-08-22T22:33:45.981Z,37.33
2018-08-22T22:36:14.749Z,37.52
2018-08-22T22:38:43.975Z,37.21
2018-08-22T22:41:12.118Z,38.22
2018-08-22T22:43:40.219Z,39.20
2018-08-22T22:46:08.513Z,38.03
2018-08-22T22:48:40.954Z,38.64
2018-08-22T22:51:09.892Z,38.86
2018-08-22T22:53:38.284Z,38.27
2018-08-22T22:56:11.299Z,38.70
2018-08-22T22:58:39.447Z,39.30
2018-08-22T23:01:09.704Z,39.68
2018-08-22T23:03:38.245Z,41.41
2018-08-22T23:06:09.190Z,41.25
2018-08-22T23:08:38.210Z,41.50
2018-08-22T23:11:06.856Z,40.24
2018-08-22T23:13:34.972Z,40.67
2018-08-22T23:16:03.199Z,40.38
2018-08-22T23:18:31.583Z,40.07
2018-08-22T23:21:00.511Z,41.35
2018-08-22T23:23:39.793Z,41.28
2018-08-22T23:26:13.736Z,40.93
2018-08-22T23:28:42.817Z,40.56
2018-08-22T23:31:11.076Z,40.54
2018-08-22T23:33:39.175Z,40.61
2018-08-22T23:36:07.290Z,40.84
2018-08-22T23:38:37.262Z,41.35
2018-08-22T23:41:06.163Z,40.51
2018-08-22T23:43:54.615Z,42.51
2018-08-22T23:46:22.869Z,41.48
2018-08-22T23:48:54.699Z,41.17
2018-08-22T23:51:23.126Z,42.01
2018-08-22T23:53:51.465Z,42.55
2018-08-22T23:56:22.515Z,42.48
2018-08-22T23:58:51.433Z,42.11
